San Francisco, California
Traffic Map
Current Weather Conditions
San Francisco, California
Few Clouds
Few Clouds
53°
Feels Like: 53°
Wind Chill: 53° Ceiling: Unl
Heat Index: 53° Visibility: 10mi
Dew Point: 49° Wind: 20mph
Humidity: 86% Direction: 280° (W)
Pressure: 29.77in Gusts: 25mph
Raw Report DataKSFO 280656Z 28017G22KT 10SM FEW020 12/09 A2977 RMK AO2 SLP079 T01170094
Traffic Incident Summary
Active as of:
Severity:
Category:
InformationThere was an issue retrieving the traffic information for this location. Please try a different location or try again shortly.
Advertisements
Track Severe Weather on mobile